Time;durP1;ratioP1;P1;durP2;ratioP2;P2;SDS_P1;SDS_P2;PMS_P1;PMS_P2;Temp;Humidity;BMP_temperature;BMP_pressure;BME280_temperature;BME280_humidity;BME280_pressure;Samples;Min_cycle;Max_cycle;Signal;HPM_P1;HPM_P2
2023/03/06 00:01:34;;;;;;;11.23;7.50;;;;;;;10.33;49.31;101016.59;5065932;28;20028;-68
2023/03/06 00:03:59;;;;;;;13.97;8.07;;;;;;;10.99;47.86;101017.88;5065631;28;20043;-68
2023/03/06 00:06:25;;;;;;;13.63;7.60;;;;;;;10.79;47.79;101004.09;5067599;28;20039;-68
2023/03/06 00:08:50;;;;;;;8.20;6.30;;;;;;;10.94;47.97;101010.97;5065301;28;20122;-67
2023/03/06 00:11:16;;;;;;;12.87;8.00;;;;;;;10.89;47.95;101010.97;5067194;28;20028;-68
2023/03/06 00:13:41;;;;;;;15.47;9.20;;;;;;;10.67;48.21;101003.34;5065509;28;20115;-70
2023/03/06 00:16:07;;;;;;;16.27;7.90;;;;;;;10.64;48.20;100998.09;5064665;28;20035;-68
2023/03/06 00:18:33;;;;;;;14.33;9.23;;;;;;;10.47;48.56;101002.59;5065173;28;20032;-68
2023/03/06 00:20:58;;;;;;;13.40;9.30;;;;;;;10.67;48.43;100994.59;5066830;28;20468;-68
2023/03/06 00:23:24;;;;;;;12.13;9.23;;;;;;;10.71;48.27;100985.84;5066730;28;20437;-68
2023/03/06 00:25:50;;;;;;;12.73;8.90;;;;;;;10.80;48.22;100990.16;5065840;28;20282;-67
2023/03/06 00:28:16;;;;;;;13.77;8.73;;;;;;;10.83;48.89;100984.91;5064325;28;20121;-68
2023/03/06 00:30:42;;;;;;;11.70;8.33;;;;;;;10.69;48.44;100983.25;5070879;28;20503;-67
2023/03/06 00:33:08;;;;;;;13.27;6.90;;;;;;;10.85;47.95;100980.50;5071580;28;20755;-68
2023/03/06 00:35:33;;;;;;;9.30;6.83;;;;;;;10.98;48.29;100984.75;5068219;28;20032;-67
2023/03/06 00:37:59;;;;;;;11.10;7.40;;;;;;;10.95;47.83;100974.31;5069309;28;20120;-67
2023/03/06 00:40:25;;;;;;;9.03;5.67;;;;;;;11.32;46.13;100976.56;5071363;28;20530;-68
2023/03/06 00:42:50;;;;;;;9.47;5.37;;;;;;;10.67;47.80;100968.47;5066001;28;20028;-68
2023/03/06 00:45:16;;;;;;;13.10;5.50;;;;;;;10.88;46.93;100964.81;5055035;28;20021;-68
2023/03/06 00:47:42;;;;;;;6.93;4.93;;;;;;;10.62;47.34;100960.66;5068604;28;20109;-68
2023/03/06 00:50:09;;;;;;;10.80;4.97;;;;;;;10.77;46.98;100951.81;5063673;28;20044;-68
2023/03/06 00:52:34;;;;;;;10.70;4.50;;;;;;;10.91;47.42;100951.69;5078825;28;20036;-67
2023/03/06 00:55:00;;;;;;;6.77;4.17;;;;;;;10.78;47.80;100950.06;5068767;28;20396;-68
2023/03/06 00:57:25;;;;;;;10.13;5.23;;;;;;;10.64;48.27;100943.22;5052709;28;20024;-68
2023/03/06 00:59:50;;;;;;;16.40;5.83;;;;;;;10.54;48.11;100946.78;5070458;28;20074;-67
2023/03/06 01:02:16;;;;;;;21.83;9.63;;;;;;;10.23;48.45;100936.53;5083440;28;20451;-67
2023/03/06 01:04:41;;;;;;;12.10;6.00;;;;;;;10.40;48.96;100932.94;5070704;28;20031;-68
2023/03/06 01:07:07;;;;;;;13.13;6.67;;;;;;;10.20;49.16;100931.31;5068623;28;20032;-69
2023/03/06 01:09:32;;;;;;;11.40;5.90;;;;;;;10.78;48.19;100926.53;5067369;28;20431;-68
2023/03/06 01:11:58;;;;;;;13.17;5.20;;;;;;;10.78;48.16;100929.16;5068434;28;20074;-68
2023/03/06 01:14:23;;;;;;;21.40;9.60;;;;;;;10.35;49.16;100928.63;5069448;28;20222;-67
2023/03/06 01:16:49;;;;;;;16.90;9.77;;;;;;;10.48;48.91;100931.16;5069876;28;20590;-68
2023/03/06 01:19:14;;;;;;;24.30;10.93;;;;;;;10.58;49.02;100930.19;5070178;28;20067;-67
2023/03/06 01:21:39;;;;;;;20.27;10.30;;;;;;;10.77;48.69;100932.63;5067241;28;20023;-68
2023/03/06 01:24:05;;;;;;;13.00;7.33;;;;;;;10.72;48.62;100926.59;5068000;28;20112;-67
2023/03/06 01:26:31;;;;;;;13.57;6.40;;;;;;;10.58;48.66;100927.59;5065048;28;20024;-68
2023/03/06 01:28:56;;;;;;;12.00;5.57;;;;;;;10.95;47.33;100932.47;5067835;28;20031;-67
2023/03/06 01:31:22;;;;;;;8.67;5.20;;;;;;;10.95;47.58;100929.88;5068550;28;20029;-68
2023/03/06 01:33:48;;;;;;;16.40;7.63;;;;;;;10.45;48.95;100926.81;5064451;28;20032;-68
2023/03/06 01:36:13;;;;;;;15.70;9.47;;;;;;;10.68;47.72;100923.16;5064460;28;20349;-68
2023/03/06 01:38:38;;;;;;;13.30;7.40;;;;;;;10.25;48.07;100919.09;5066598;28;20056;-68
2023/03/06 01:41:04;;;;;;;11.47;5.20;;;;;;;9.97;49.09;100934.97;5069757;28;20472;-68
2023/03/06 01:43:33;;;;;;;8.87;4.50;;;;;;;9.90;50.05;100927.16;5066028;28;20029;-68
2023/03/06 01:46:23;;;;;;;7.47;4.30;;;;;;;10.07;49.44;100924.44;5065010;28;20496;-67
2023/03/06 01:48:53;;;;;;;8.70;3.10;;;;;;;10.33;48.83;100925.13;5061066;28;20082;-67
2023/03/06 01:51:19;;;;;;;8.87;3.90;;;;;;;9.78;49.83;100917.66;5059194;28;20103;-68
2023/03/06 01:53:47;;;;;;;6.53;3.87;;;;;;;9.51;50.91;100922.13;5067713;28;20099;-67
2023/03/06 01:56:13;;;;;;;6.87;3.23;;;;;;;9.71;49.64;100915.94;5067536;28;20024;-68
2023/03/06 01:58:42;;;;;;;13.73;3.60;;;;;;;9.61;49.75;100915.97;5067535;28;20032;-68
2023/03/06 02:01:10;;;;;;;5.37;3.23;;;;;;;9.88;49.33;100918.47;5068220;28;20392;-67
2023/03/06 02:03:37;;;;;;;6.43;3.77;;;;;;;9.37;50.80;100918.69;5061221;28;20039;-67
2023/03/06 02:06:03;;;;;;;9.93;4.17;;;;;;;9.76;50.27;100909.81;5067427;28;20039;-68
2023/03/06 02:08:31;;;;;;;7.40;4.60;;;;;;;9.50;50.07;100892.53;5069945;28;20028;-68
2023/03/06 02:11:19;;;;;;;12.07;5.47;;;;;;;9.70;50.04;100898.53;5068910;28;20039;-68
2023/03/06 02:13:45;;;;;;;9.30;4.87;;;;;;;9.44;51.08;100902.16;5060687;28;20135;-68
2023/03/06 02:16:12;;;;;;;11.27;4.77;;;;;;;9.85;49.99;100898.47;5069314;28;20024;-68
2023/03/06 02:18:39;;;;;;;8.20;4.97;;;;;;;9.46;51.17;100900.41;5068143;28;20024;-67
2023/03/06 02:21:08;;;;;;;9.97;4.53;;;;;;;9.33;51.37;100905.66;5061622;28;20074;-68
2023/03/06 02:24:01;;;;;;;6.40;4.17;;;;;;;9.30;51.97;100902.19;5062392;28;20021;-67
2023/03/06 02:26:28;;;;;;;6.87;4.27;;;;;;;9.53;51.36;100883.84;5068436;28;20111;-68
2023/03/06 02:28:56;;;;;;;12.60;5.10;;;;;;;9.44;51.02;100881.28;5068312;28;20103;-68
2023/03/06 02:31:28;;;;;;;6.97;3.83;;;;;;;9.59;50.75;100875.09;5065705;28;20017;-67
2023/03/06 02:34:07;;;;;;;4.20;3.10;;;;;;;9.81;51.18;100870.66;5065622;28;20092;-68
2023/03/06 02:36:36;;;;;;;5.00;3.50;;;;;;;10.47;49.04;100872.78;5067947;28;20129;-67
2023/03/06 02:39:02;;;;;;;6.20;3.37;;;;;;;9.90;50.46;100865.34;5067420;28;20054;-68
2023/03/06 02:41:28;;;;;;;10.40;3.43;;;;;;;10.01;50.49;100858.34;5066048;28;20017;-68
2023/03/06 02:43:53;;;;;;;6.30;3.17;;;;;;;9.89;50.42;100858.41;5065590;28;20107;-67
2023/03/06 02:46:19;;;;;;;4.80;2.90;;;;;;;10.09;50.82;100855.66;5066826;28;20045;-68
2023/03/06 02:48:44;;;;;;;4.47;2.90;;;;;;;9.40;51.38;100856.09;5067541;28;20025;-68
2023/03/06 02:51:09;;;;;;;4.47;2.97;;;;;;;9.94;49.95;100846.19;5066768;28;20115;-68
2023/03/06 02:53:35;;;;;;;4.00;3.23;;;;;;;10.51;49.65;100842.28;5066904;28;20021;-68
2023/03/06 02:56:00;;;;;;;8.80;2.80;;;;;;;10.50;49.28;100832.69;5067311;28;20032;-68
2023/03/06 02:58:26;;;;;;;5.43;2.90;;;;;;;10.28;49.67;100835.47;5066963;28;20032;-68
2023/03/06 03:00:51;;;;;;;5.97;2.60;;;;;;;11.01;48.22;100821.69;5067374;28;20017;-67
2023/03/06 03:03:17;;;;;;;4.00;2.50;;;;;;;11.05;47.70;100827.75;5065187;28;20025;-68
2023/03/06 03:05:42;;;;;;;3.67;2.80;;;;;;;11.11;47.52;100822.44;5067968;28;20028;-68
2023/03/06 03:08:08;;;;;;;3.97;2.60;;;;;;;11.48;46.61;100809.72;5068362;28;20021;-68
2023/03/06 03:10:33;;;;;;;5.10;2.40;;;;;;;11.42;46.54;100817.69;5066049;28;20392;-67
2023/03/06 03:12:58;;;;;;;3.70;2.70;;;;;;;11.34;46.72;100820.38;5066405;28;20040;-68
2023/03/06 03:15:24;;;;;;;3.67;2.70;;;;;;;11.19;47.32;100810.13;5067302;28;20396;-67
2023/03/06 03:17:50;;;;;;;9.13;2.57;;;;;;;10.84;47.55;100814.06;5067814;28;20028;-67
2023/03/06 03:20:18;;;;;;;4.03;2.80;;;;;;;10.58;48.42;100809.97;5067989;28;20110;-67
2023/03/06 03:22:48;;;;;;;5.23;2.50;;;;;;;11.08;47.15;100812.03;5065995;28;20481;-68
2023/03/06 03:25:13;;;;;;;6.73;2.40;;;;;;;10.47;49.14;100811.84;5067914;28;20411;-67
2023/03/06 03:27:39;;;;;;;4.67;3.00;;;;;;;10.43;48.88;100807.50;5068243;28;20040;-68
2023/03/06 03:30:05;;;;;;;4.33;3.13;;;;;;;10.31;49.58;100808.47;5065768;28;20123;-67
2023/03/06 03:32:30;;;;;;;6.07;3.37;;;;;;;10.37;49.14;100810.16;5065478;28;20034;-68
2023/03/06 03:34:55;;;;;;;7.13;3.10;;;;;;;9.91;50.80;100811.41;5065490;28;20178;-68
2023/03/06 03:37:21;;;;;;;6.27;3.17;;;;;;;9.75;51.67;100808.03;5060135;28;20448;-68
2023/03/06 03:39:46;;;;;;;6.87;3.40;;;;;;;9.53;51.97;100800.34;5065283;28;20028;-67
2023/03/06 03:42:12;;;;;;;6.87;3.23;;;;;;;9.36;51.93;100799.59;5068672;28;20099;-67
2023/03/06 03:44:37;;;;;;;5.23;3.20;;;;;;;10.29;50.64;100795.41;5065707;28;20032;-68
2023/03/06 03:47:03;;;;;;;7.03;3.27;;;;;;;9.89;51.47;100792.25;5066110;28;20420;-68
2023/03/06 03:49:28;;;;;;;5.47;3.23;;;;;;;10.00;52.05;100788.69;5066164;28;20115;-68
2023/03/06 03:51:53;;;;;;;3.07;2.63;;;;;;;10.71;49.34;100783.69;5064900;28;20031;-68
2023/03/06 03:54:19;;;;;;;5.47;3.23;;;;;;;9.89;50.65;100785.31;5066783;28;20032;-68
2023/03/06 03:56:44;;;;;;;3.83;2.77;;;;;;;10.48;49.54;100780.44;5065953;28;20039;-68
2023/03/06 03:59:10;;;;;;;3.77;2.63;;;;;;;10.50;49.94;100789.13;5067186;28;20029;-68
2023/03/06 04:01:36;;;;;;;7.30;2.60;;;;;;;10.42;50.35;100770.03;5065653;28;20016;-68
2023/03/06 04:04:01;;;;;;;6.10;2.60;;;;;;;9.51;51.71;100768.19;5072287;28;20502;-68
2023/03/06 04:06:27;;;;;;;5.27;2.60;;;;;;;9.55;53.46;100763.78;5068602;28;20035;-68
2023/03/06 04:08:52;;;;;;;5.53;2.73;;;;;;;10.22;52.08;100761.50;5069542;28;20043;-68
2023/03/06 04:11:18;;;;;;;4.73;2.83;;;;;;;10.43;50.44;100757.88;5070216;28;20024;-68
2023/03/06 04:13:43;;;;;;;7.50;4.33;;;;;;;10.97;49.25;100754.63;5069385;28;20098;-68
2023/03/06 04:16:09;;;;;;;10.70;3.17;;;;;;;10.40;50.20;100755.25;5070289;28;20116;-68
2023/03/06 04:18:34;;;;;;;5.60;2.83;;;;;;;10.48;50.30;100759.53;5068854;28;20028;-68
2023/03/06 04:20:59;;;;;;;4.97;3.10;;;;;;;10.28;50.51;100756.25;5068973;28;20480;-67
2023/03/06 04:23:26;;;;;;;9.47;4.10;;;;;;;10.42;50.55;100748.28;5070792;28;20024;-67
2023/03/06 04:25:52;;;;;;;6.90;3.73;;;;;;;10.98;48.96;100749.34;5067992;28;20036;-68
2023/03/06 04:28:18;;;;;;;4.43;2.83;;;;;;;9.74;51.10;100754.09;5069404;28;20083;-68
2023/03/06 04:30:43;;;;;;;9.23;3.83;;;;;;;10.95;48.96;100744.19;5069285;28;20027;-68
2023/03/06 04:33:09;;;;;;;4.50;3.20;;;;;;;11.22;47.99;100742.06;5068242;28;20489;-67
2023/03/06 04:35:35;;;;;;;5.07;2.97;;;;;;;10.87;48.81;100743.41;5070794;28;20035;-68
2023/03/06 04:38:00;;;;;;;3.30;3.00;;;;;;;10.69;50.21;100745.34;5084229;28;20416;-67
2023/03/06 04:40:32;;;;;;;4.17;2.77;;;;;;;10.12;50.45;100735.47;5068474;28;20021;-67
2023/03/06 04:42:59;;;;;;;2.93;2.63;;;;;;;10.43;51.17;100739.56;5071424;28;20036;-68
2023/03/06 04:45:26;;;;;;;3.87;3.03;;;;;;;11.27;49.99;100740.25;5063998;28;20024;-68
2023/03/06 04:47:52;;;;;;;4.23;3.00;;;;;;;11.18;48.68;100725.56;5069450;28;20051;-68
2023/03/06 04:50:18;;;;;;;6.33;3.27;;;;;;;10.44;50.69;100738.66;5071907;28;20037;-68
2023/03/06 04:52:43;;;;;;;4.80;3.00;;;;;;;10.33;52.40;100723.97;5069244;28;20016;-68
2023/03/06 04:55:12;;;;;;;7.50;2.97;;;;;;;10.41;52.83;100725.66;5067891;28;20020;-69
2023/03/06 04:57:40;;;;;;;3.97;2.60;;;;;;;10.01;53.92;100730.38;5069998;28;20027;-69
2023/03/06 05:00:08;;;;;;;3.97;2.87;;;;;;;10.45;52.41;100722.97;5065328;28;20298;-68
2023/03/06 05:02:34;;;;;;;5.00;3.20;;;;;;;10.00;54.74;100736.47;5067660;28;20028;-68
2023/03/06 05:04:59;;;;;;;4.53;3.00;;;;;;;10.85;51.54;100727.75;5069597;28;20050;-68
2023/03/06 05:07:25;;;;;;;4.47;3.33;;;;;;;10.41;52.16;100736.09;5069200;28;20111;-69
2023/03/06 05:09:50;;;;;;;6.33;3.53;;;;;;;9.20;56.29;100731.84;5065254;28;20035;-69
2023/03/06 05:12:16;;;;;;;7.10;3.53;;;;;;;9.84;55.42;100734.88;5070636;28;20452;-69
2023/03/06 05:14:42;;;;;;;7.63;4.00;;;;;;;10.26;55.40;100732.75;5069338;28;20498;-68
2023/03/06 05:17:08;;;;;;;11.43;4.23;;;;;;;10.23;55.11;100727.53;5069112;28;20119;-69
2023/03/06 05:19:33;;;;;;;8.07;4.23;;;;;;;10.68;53.81;100725.31;5069981;28;20103;-68
2023/03/06 05:21:59;;;;;;;6.67;4.47;;;;;;;10.57;53.58;100718.50;5068117;28;20048;-68
2023/03/06 05:24:24;;;;;;;8.60;4.60;;;;;;;10.29;54.09;100727.47;5067818;28;20024;-68
2023/03/06 05:26:49;;;;;;;10.57;4.83;;;;;;;10.77;52.91;100718.25;5068068;28;20123;-69
2023/03/06 05:29:15;;;;;;;5.60;4.20;;;;;;;10.30;53.25;100724.00;5069457;28;20499;-69
2023/03/06 05:31:40;;;;;;;7.00;4.27;;;;;;;9.68;57.01;100724.56;5067003;28;20036;-68
2023/03/06 05:34:05;;;;;;;11.33;4.93;;;;;;;10.50;53.89;100725.56;5060986;28;20451;-69
2023/03/06 05:36:31;;;;;;;8.43;4.20;;;;;;;11.14;51.41;100717.75;5069808;28;20587;-68
2023/03/06 05:38:56;;;;;;;6.90;4.43;;;;;;;10.01;54.63;100719.94;5054134;28;20048;-68
2023/03/06 05:41:21;;;;;;;9.27;5.00;;;;;;;10.53;53.67;100715.06;5066722;28;20118;-68
2023/03/06 05:43:47;;;;;;;10.60;5.43;;;;;;;9.97;53.81;100720.84;5065573;28;20025;-68
2023/03/06 05:46:13;;;;;;;10.77;4.70;;;;;;;11.08;52.31;100707.41;5050675;28;20060;-68
2023/03/06 05:48:38;;;;;;;10.50;5.63;;;;;;;11.02;52.15;100719.66;5057670;28;20048;-68
2023/03/06 05:51:04;;;;;;;8.43;5.73;;;;;;;11.10;51.66;100716.06;5069035;28;20036;-68
2023/03/06 05:53:31;;;;;;;9.30;5.70;;;;;;;11.15;51.61;100716.88;5066809;28;20039;-68
2023/03/06 05:56:05;;;;;;;5.30;4.10;;;;;;;9.50;56.03;100730.78;5063735;28;20035;-69
2023/03/06 05:58:31;;;;;;;10.70;7.33;;;;;;;10.77;54.13;100731.31;5064312;28;20058;-69
2023/03/06 06:00:57;;;;;;;9.17;6.17;;;;;;;9.88;55.77;100726.13;5068644;28;20020;-68
2023/03/06 06:03:23;;;;;;;12.00;5.83;;;;;;;9.94;55.90;100735.66;5068625;28;20020;-68
2023/03/06 06:05:49;;;;;;;11.73;5.97;;;;;;;9.93;56.61;100742.63;5067577;28;20111;-68
2023/03/06 06:08:14;;;;;;;8.57;5.80;;;;;;;9.72;57.36;100740.19;5069305;28;20107;-68
2023/03/06 06:10:40;;;;;;;6.73;5.20;;;;;;;10.75;54.38;100735.72;5066264;28;20040;-70
2023/03/06 06:13:06;;;;;;;9.20;5.30;;;;;;;11.22;52.52;100723.75;5054594;28;20051;-68
2023/03/06 06:15:31;;;;;;;4.73;4.00;;;;;;;11.44;51.81;100728.66;5069468;28;20028;-68
2023/03/06 06:17:57;;;;;;;5.57;4.10;;;;;;;11.68;52.72;100727.44;5069912;28;20123;-68
2023/03/06 06:20:23;;;;;;;10.13;5.47;;;;;;;12.03;51.76;100723.38;5066510;28;20024;-68
2023/03/06 06:22:49;;;;;;;7.87;4.83;;;;;;;11.99;50.34;100725.19;5067273;28;20771;-68
2023/03/06 06:25:15;;;;;;;7.07;3.57;;;;;;;12.39;49.79;100711.34;5067878;28;20032;-68
2023/03/06 06:27:40;;;;;;;3.43;2.07;;;;;;;11.86;49.08;100723.63;5066887;28;20017;-68
2023/03/06 06:30:07;;;;;;;6.00;1.93;;;;;;;11.85;50.37;100727.13;5064843;28;20506;-68
2023/03/06 06:32:32;;;;;;;4.03;1.80;;;;;;;12.15;49.34;100723.13;5067184;28;20024;-67
2023/03/06 06:34:58;;;;;;;6.10;1.70;;;;;;;11.84;50.44;100714.91;5066811;28;20528;-68
2023/03/06 06:37:24;;;;;;;3.50;1.57;;;;;;;11.91;49.83;100716.56;5067789;28;20051;-67
2023/03/06 06:39:50;;;;;;;5.50;2.43;;;;;;;10.72;52.26;100720.94;5066154;28;20028;-68
2023/03/06 06:42:16;;;;;;;6.83;4.20;;;;;;;11.99;50.17;100719.94;5064386;28;20054;-68
2023/03/06 06:44:41;;;;;;;5.90;3.70;;;;;;;11.75;50.46;100725.56;5062187;28;20480;-68
2023/03/06 06:47:07;;;;;;;5.03;3.13;;;;;;;11.98;50.44;100722.56;5048367;28;20049;-68
2023/03/06 06:49:33;;;;;;;9.10;3.70;;;;;;;12.03;50.40;100728.59;5061403;28;20020;-68
2023/03/06 06:51:58;;;;;;;7.97;3.80;;;;;;;11.79;50.56;100729.88;5065746;28;20077;-68
2023/03/06 06:54:24;;;;;;;6.60;3.40;;;;;;;12.21;49.06;100727.41;5067156;28;20143;-68
2023/03/06 06:56:49;;;;;;;8.60;3.80;;;;;;;11.60;49.94;100738.00;5066491;28;20028;-68
2023/03/06 06:59:15;;;;;;;5.47;3.33;;;;;;;11.82;50.24;100737.66;5065762;28;20033;-69
2023/03/06 07:01:40;;;;;;;8.90;3.20;;;;;;;12.22;49.20;100726.50;5067503;28;20082;-68
2023/03/06 07:04:06;;;;;;;10.13;3.33;;;;;;;12.57;48.30;100722.38;5065865;28;20062;-68
2023/03/06 07:06:31;;;;;;;7.10;2.57;;;;;;;12.43;48.85;100720.00;5062553;28;20020;-68
2023/03/06 07:08:56;;;;;;;9.30;3.70;;;;;;;12.24;49.23;100730.00;5062165;28;20034;-68
2023/03/06 07:11:22;;;;;;;13.07;3.37;;;;;;;12.02;49.45;100724.25;5058838;28;20024;-69
2023/03/06 07:13:48;;;;;;;7.30;4.30;;;;;;;12.46;48.74;100726.94;5064226;28;20035;-69
2023/03/06 07:16:16;;;;;;;5.37;3.93;;;;;;;12.58;48.73;100721.44;5067699;28;20426;-68
2023/03/06 07:18:42;;;;;;;6.27;3.63;;;;;;;12.67;48.25;100734.38;5066561;28;20024;-68
2023/03/06 07:21:08;;;;;;;7.53;3.70;;;;;;;12.42;48.78;100736.63;5065011;28;20090;-69
2023/03/06 07:23:33;;;;;;;6.00;3.67;;;;;;;12.38;49.09;100732.34;5064757;28;20031;-69
2023/03/06 07:25:59;;;;;;;7.57;3.90;;;;;;;12.63;48.21;100722.22;5055308;28;20052;-68
2023/03/06 07:28:24;;;;;;;9.83;3.73;;;;;;;12.26;49.36;100733.44;5054605;28;20547;-68
2023/03/06 07:30:50;;;;;;;5.20;3.37;;;;;;;12.32;48.69;100738.56;5052477;28;20031;-68
2023/03/06 07:33:16;;;;;;;8.03;4.03;;;;;;;12.11;49.37;100738.97;5067768;28;20028;-68
2023/03/06 07:35:42;;;;;;;7.97;4.10;;;;;;;11.95;49.79;100731.38;5068496;28;20027;-68
2023/03/06 07:38:08;;;;;;;10.67;4.50;;;;;;;12.38;48.93;100730.56;5066363;28;20484;-68
2023/03/06 07:40:34;;;;;;;9.63;4.63;;;;;;;12.32;49.49;100717.59;5068031;28;20112;-68
2023/03/06 07:42:59;;;;;;;7.03;4.63;;;;;;;12.60;49.29;100717.06;5062038;28;20055;-68
2023/03/06 07:45:25;;;;;;;10.33;5.47;;;;;;;12.75;49.29;100715.00;5068347;28;20048;-67
2023/03/06 07:47:52;;;;;;;13.03;6.60;;;;;;;12.99;48.77;100719.72;5066387;28;20058;-68
2023/03/06 07:50:18;;;;;;;12.67;6.57;;;;;;;12.98;49.00;100720.63;5066228;28;20032;-68
2023/03/06 07:52:44;;;;;;;8.90;5.00;;;;;;;12.91;48.86;100711.16;5064465;28;20110;-68
2023/03/06 07:55:10;;;;;;;9.73;4.90;;;;;;;12.75;49.00;100722.88;5068258;28;20597;-68
2023/03/06 07:57:36;;;;;;;12.07;6.53;;;;;;;13.03;48.17;100716.13;5066454;28;20032;-68
2023/03/06 08:00:05;;;;;;;12.90;5.50;;;;;;;13.20;48.32;100723.66;5061905;28;20128;-68
2023/03/06 08:02:30;;;;;;;7.43;3.70;;;;;;;12.73;48.31;100726.41;5063051;28;20052;-68
2023/03/06 08:04:55;;;;;;;8.80;3.77;;;;;;;13.19;47.59;100732.41;5064799;28;20059;-68
2023/03/06 08:07:21;;;;;;;6.73;3.53;;;;;;;13.58;46.93;100731.53;5066805;28;20024;-69
2023/03/06 08:09:47;;;;;;;7.93;3.23;;;;;;;13.78;46.54;100727.56;5066310;28;20020;-69
2023/03/06 08:12:13;;;;;;;13.93;2.90;;;;;;;13.50;46.18;100733.50;5065921;28;20025;-68
2023/03/06 08:14:38;;;;;;;9.83;2.43;;;;;;;13.70;45.85;100728.63;5066491;28;20028;-67
2023/03/06 08:17:04;;;;;;;8.10;2.37;;;;;;;14.16;45.29;100715.19;5066299;28;20032;-67
2023/03/06 08:19:29;;;;;;;7.03;2.70;;;;;;;14.54;44.75;100722.03;5065895;28;20036;-67
2023/03/06 08:21:55;;;;;;;4.50;2.30;;;;;;;14.89;44.37;100716.69;5066259;28;20012;-67
2023/03/06 08:24:20;;;;;;;2.83;2.40;;;;;;;14.09;45.18;100714.50;5067036;28;20115;-67
2023/03/06 08:26:46;;;;;;;5.97;2.20;;;;;;;14.03;45.73;100715.53;5064696;28;20021;-67
2023/03/06 08:29:12;;;;;;;7.23;1.87;;;;;;;13.76;43.89;100717.09;5067038;28;20032;-67
2023/03/06 08:31:40;;;;;;;2.50;1.43;;;;;;;12.26;46.06;100730.81;5066445;28;20377;-67
2023/03/06 08:34:08;;;;;;;5.37;1.40;;;;;;;13.11;45.87;100723.84;5057982;28;20321;-69
2023/03/06 08:36:34;;;;;;;2.93;1.20;;;;;;;13.88;45.10;100721.19;5061849;28;20025;-69
2023/03/06 08:39:00;;;;;;;2.63;0.97;;;;;;;14.12;44.65;100726.69;5064197;28;20126;-69
2023/03/06 08:41:25;;;;;;;6.83;1.47;;;;;;;13.46;44.23;100726.59;5061609;28;20560;-69
2023/03/06 08:43:51;;;;;;;4.30;1.87;;;;;;;14.30;43.39;100731.47;5050403;28;20580;-69
2023/03/06 08:46:18;;;;;;;2.40;1.20;;;;;;;13.55;44.09;100724.59;5060324;28;20044;-69
2023/03/06 08:48:46;;;;;;;4.87;1.30;;;;;;;13.46;43.93;100734.47;5061791;28;20048;-69
2023/03/06 08:51:12;;;;;;;3.20;1.03;;;;;;;13.24;44.22;100729.66;5059839;28;20032;-70
2023/03/06 08:53:37;;;;;;;10.13;1.77;;;;;;;14.31;43.37;100725.28;5070284;28;20048;-69
2023/03/06 08:56:03;;;;;;;4.23;1.10;;;;;;;14.00;41.98;100720.88;5071653;28;20472;-68
2023/03/06 08:58:29;;;;;;;7.60;1.40;;;;;;;14.41;42.46;100716.25;5058481;28;20134;-69
2023/03/06 09:00:55;;;;;;;4.70;1.07;;;;;;;14.27;42.00;100718.41;5066617;28;20028;-69
2023/03/06 09:03:22;;;;;;;3.57;1.27;;;;;;;14.06;42.05;100720.69;5069606;28;20035;-69
2023/03/06 09:05:47;;;;;;;3.37;1.70;;;;;;;14.85;40.23;100720.31;5051013;28;20079;-69
2023/03/06 09:08:13;;;;;;;1.53;1.20;;;;;;;13.29;43.03;100733.06;5068689;28;20062;-69
2023/03/06 09:10:38;;;;;;;3.53;1.43;;;;;;;13.00;43.57;100721.44;5070740;28;20097;-69
2023/03/06 09:13:03;;;;;;;4.20;1.30;;;;;;;13.09;43.65;100724.78;5066917;28;20032;-69
2023/03/06 09:15:29;;;;;;;5.70;1.40;;;;;;;14.14;42.45;100728.38;5069164;28;20036;-69
2023/03/06 09:17:55;;;;;;;7.47;1.80;;;;;;;14.69;41.42;100722.53;5069445;28;20082;-69
2023/03/06 09:20:21;;;;;;;11.17;2.10;;;;;;;14.59;40.92;100724.56;5063872;28;20013;-69
2023/03/06 09:22:46;;;;;;;5.17;3.00;;;;;;;13.84;41.54;100724.78;5068244;28;20028;-69
2023/03/06 09:25:12;;;;;;;7.83;1.77;;;;;;;14.60;42.18;100721.00;5070024;28;20035;-69
2023/03/06 09:27:39;;;;;;;5.90;1.37;;;;;;;14.81;41.29;100722.19;5066225;28;20032;-69
2023/03/06 09:30:06;;;;;;;3.83;1.50;;;;;;;14.79;41.24;100726.63;5067928;28;20400;-69
2023/03/06 09:32:31;;;;;;;5.47;1.20;;;;;;;15.42;40.06;100721.22;5044938;28;20033;-69
2023/03/06 09:34:57;;;;;;;6.07;1.47;;;;;;;15.32;40.36;100730.28;5055245;28;20499;-69
2023/03/06 09:37:22;;;;;;;5.73;1.70;;;;;;;14.91;41.53;100736.78;5069687;28;20043;-69
2023/03/06 09:39:47;;;;;;;3.23;1.30;;;;;;;14.92;41.27;100732.41;5068447;28;20133;-69
2023/03/06 09:42:18;;;;;;;6.00;1.60;;;;;;;13.95;42.08;100728.00;5065751;28;20035;-69
2023/03/06 09:44:50;;;;;;;4.40;1.80;;;;;;;14.78;41.44;100726.66;5069764;28;20097;-69
2023/03/06 09:47:50;;;;;;;9.13;2.17;;;;;;;14.35;42.54;100721.69;5069208;28;20050;-68
2023/03/06 09:50:35;;;;;;;5.17;2.00;;;;;;;15.68;40.31;100722.16;5067789;28;20112;-69
2023/03/06 09:53:19;;;;;;;7.43;2.70;;;;;;;14.51;41.98;100719.50;5068568;28;20028;-69
2023/03/06 09:55:55;;;;;;;3.87;2.20;;;;;;;14.52;42.32;100722.97;5068584;28;20024;-69
2023/03/06 09:58:24;;;;;;;10.77;5.27;;;;;;;14.49;42.50;100723.06;5067055;28;20031;-69
2023/03/06 10:00:55;;;;;;;5.03;3.90;;;;;;;15.13;41.91;100714.25;5066106;28;20471;-68
2023/03/06 10:03:33;;;;;;;7.77;3.87;;;;;;;15.26;41.50;100716.44;5064899;28;20020;-69
2023/03/06 10:06:18;;;;;;;10.23;3.30;;;;;;;15.07;41.69;100716.13;5068143;28;20035;-69
2023/03/06 10:08:55;;;;;;;4.80;4.07;;;;;;;14.97;42.10;100714.69;5069874;28;20096;-69
2023/03/06 10:11:31;;;;;;;10.43;2.80;;;;;;;13.19;44.91;100721.06;5067821;28;20051;-70
2023/03/06 10:14:15;;;;;;;8.47;4.57;;;;;;;14.32;43.21;100711.25;5063115;28;20032;-68
2023/03/06 10:16:40;;;;;;;6.93;2.37;;;;;;;13.44;45.32;100716.13;5073422;28;20035;-69
2023/03/06 10:19:36;;;;;;;6.77;2.90;;;;;;;14.01;44.20;100713.84;5064695;28;20214;-69
2023/03/06 10:22:26;;;;;;;7.10;3.57;;;;;;;13.26;45.62;100721.75;5065441;28;20095;-69
2023/03/06 10:25:08;;;;;;;5.73;3.33;;;;;;;12.34;49.72;100721.03;5064389;28;20025;-69
2023/03/06 10:27:43;;;;;;;12.77;4.33;;;;;;;12.14;50.63;100728.41;5049001;28;20032;-68
2023/03/06 10:30:17;;;;;;;7.67;3.57;;;;;;;12.30;51.01;100719.38;5059971;28;20085;-68
2023/03/06 10:32:54;;;;;;;8.30;4.30;;;;;;;13.33;48.97;100708.47;5065726;28;20647;-69
2023/03/06 10:35:31;;;;;;;9.07;4.17;;;;;;;13.14;48.78;100712.41;5062974;28;20334;-69
2023/03/06 10:38:14;;;;;;;10.13;3.90;;;;;;;13.56;48.36;100705.31;5061768;28;20036;-69
2023/03/06 10:40:49;;;;;;;8.18;3.90;;;;;;;13.32;46.82;100705.88;5079949;28;20484;-69
2023/03/06 10:43:15;;;;;;;9.00;4.67;;;;;;;12.63;48.08;100700.41;5061605;28;20119;-69
2023/03/06 10:45:52;;;;;;;17.77;7.13;;;;;;;13.31;48.45;100699.78;5058824;28;20081;-68
2023/03/06 10:48:26;;;;;;;13.80;7.10;;;;;;;13.66;47.01;100695.44;5062371;28;20050;-69
2023/03/06 10:50:53;;;;;;;15.77;7.30;;;;;;;14.10;46.70;100691.72;5054044;28;20025;-69
2023/03/06 10:53:27;;;;;;;15.67;6.90;;;;;;;14.57;45.90;100689.53;5058413;28;20041;-69
2023/03/06 10:55:57;;;;;;;12.23;7.40;;;;;;;14.73;44.96;100679.47;5062617;28;20393;-68
2023/03/06 10:58:26;;;;;;;12.57;6.73;;;;;;;15.13;43.86;100682.66;5067708;28;20032;-68
2023/03/06 11:01:10;;;;;;;11.70;7.20;;;;;;;15.31;43.67;100670.66;5072841;28;20392;-69
2023/03/06 11:03:36;;;;;;;11.73;5.70;;;;;;;14.62;45.87;100682.38;5064989;28;20036;-69
2023/03/06 11:06:04;;;;;;;13.07;6.20;;;;;;;14.86;45.61;100669.41;5064426;28;20369;-69
2023/03/06 11:08:30;;;;;;;10.27;5.70;;;;;;;15.56;42.92;100668.06;5063665;28;20052;-69
2023/03/06 11:10:58;;;;;;;11.70;6.70;;;;;;;15.21;43.42;100670.09;5065083;28;20052;-69
2023/03/06 11:13:26;;;;;;;12.37;6.37;;;;;;;15.00;43.46;100669.88;5065960;28;20438;-69
2023/03/06 11:15:59;;;;;;;10.07;6.00;;;;;;;14.50;44.39;100661.69;5065966;28;20401;-69
2023/03/06 11:18:33;;;;;;;;;;;;;;;14.79;44.44;100660.00;5067316;28;20086;-69
2023/03/06 11:21:00;;;;;;;14.37;7.37;;;;;;;14.61;44.65;100659.59;5067106;28;19988;-69
2023/03/06 11:23:50;;;;;;;15.10;7.47;;;;;;;14.46;45.11;100660.06;5067171;28;20059;-68
2023/03/06 11:26:16;;;;;;;12.37;6.87;;;;;;;15.15;44.24;100654.50;5066975;28;20483;-68